EBBREBOS

Guest
Details From EBBR - Brussels Airport
To EBOS - Oostende
Flight Number -
Tags decoded
Created
Modified
Stats Distance 64 nm / 118 km
Max Altitude 0 ft / 0 m
Waypoints 2
Social Downloads 0
Likes 0
Share VATSIM

Download

Looking for another format? Having issues loading an existing format? Contact us
Advertisement - Login to hide

Notes

Requested: EBBR DENEUVE EBOS Unmatched points: DENEUVE

Route

EBBR EBOS

ID Type Via Altitude Latitude Longitude Leg Dist Tot Dist Heading (true) Name
O EBBR APT - 0 ft / 0 m 50.89995˚ 4.49281˚ - 0 nm - Brussels Airport
O EBOS APT - 0 ft / 0 m 51.19997˚ 2.87501˚ 63 nm 63 nm 287° / 286° Oostende

Altitude Profile

Advertisement - Login to hide

EBBR

Details ICAO EBBR (BRU)
Name Brussels Airport
Region Belgium
Timezone Europe/Brussels (UTC+1.0)
Stats Elevation 184 ft / 56 m (AMSL)
Location 50.899948° 4.492814°
Runways 3
Magnetic Variation 1.124° E

METAR

EBBR 181420Z 35007KT 9999 FEW023 BKN031 07/03 Q1026 NOSIG

Decode

TAF

TAF TAF EBBR 181110Z 1812/1918 33009KT 9999 SCT015 SCT030 BECMG 1818/1920 2500 BR PROB30 TEMPO 1901/1908 0800 BCFG SCT003 BKN006 BECMG 1910/1912 7000 NSW

Decode

Departure Runways

ID Width Length Bearing (true) Bearing (mag) Surface Threshold Offset Overrun Length
02 164 ft / 50 m 9,896 ft / 3,016 m 14.41° 13.29° Asphalt 249 ft / 76 m 0 ft / 0 m
07L 148 ft / 45 m 12,106 ft / 3,690 m 65.16° 64.04° Asphalt 801 ft / 244 m 0 ft / 0 m
07R 148 ft / 45 m 10,703 ft / 3,262 m 69.90° 68.78° Asphalt 499 ft / 152 m 0 ft / 0 m
20 164 ft / 50 m 9,896 ft / 3,016 m 194.42° 193.30° Asphalt 751 ft / 229 m 0 ft / 0 m
25L 148 ft / 45 m 10,703 ft / 3,262 m 249.93° 248.81° Asphalt 499 ft / 152 m 0 ft / 0 m
25R 148 ft / 45 m 12,106 ft / 3,690 m 245.20° 244.08° Asphalt 801 ft / 244 m 0 ft / 0 m

EBOS

Details ICAO EBOS (OST)
Name Oostende
Region Belgium
Timezone Europe/Brussels (UTC+1.0)
Stats Elevation 13 ft / 4 m (AMSL)
Location 51.199967° 2.875008°
Runways 1
Magnetic Variation 0.590° E

METAR

EBOS 181420Z 35009KT 9999 FEW024 07/04 Q1028 NOSIG

Decode

TAF

TAF EBOS 181110Z 1812/1918 35013KT 9999 SCT015 SCT030 BECMG 1906/1908 29008KT

Decode

Destination Runways

ID Width Length Bearing (true) Bearing (mag) Surface Threshold Offset Overrun Length
08 148 ft / 45 m 10,515 ft / 3,205 m 76.36° 75.77° Asphalt 984 ft / 300 m 0 ft / 0 m
26 148 ft / 45 m 10,515 ft / 3,205 m 256.39° 255.80° Asphalt 1,362 ft / 415 m 0 ft / 0 m

Approach Navaids

Runway Type Ident Frequency Range Bearing (true) Bearing (mag) Slope Elevation
08 Localiser IMI 111.55 MHz 18 nm / 33 km 76.37° 75.78° - 13 ft / 4 m (AMSL)
08 Glidescope IMI 111.55 MHz 10 nm / 19 km 76.37° 75.78° 3.00° 13 ft / 4 m (AMSL)
08 DME IMI 111.55 MHz 18 nm / 33 km - - - 13 ft / 4 m (AMSL)
26 Localiser IOS 109.50 MHz 18 nm / 33 km 256.37° 255.78° - 13 ft / 4 m (AMSL)
26 Glidescope IOS 109.50 MHz 10 nm / 19 km 256.37° 255.78° 3.00° 13 ft / 4 m (AMSL)

Popular Alternatives